Hovedside
METAR-TAF:

METAR-TAF

Lufthavner :

Vasa lufthavn

Vasa, Finland

breddegrad: 63-03N, lengdegrad: 021-46E, høyde over havet: 4 m

Gjeldene værobservasjon

Denne rapporten ble laget for 19 minutter siden, klokken 12:20 UTC
Vind 14 kt fra Vest-nordvest, skiftende mellom Vest og Nord-nordvest
Temperatur 2°C
Luftfuktighet 47%
Trykk 993 hPa
Sikt 10 km eller mer
ingen skyer under 1500 m og ingen bygeskyer

METAR: EFVA 241220Z AUTO 30014KT 260V330 CAVOK 02/M08 Q0993

Tid: 14:39 (12:39 UTC)

Varsel

Denne rapporten ble laget for 1 time og 8 minutter siden, klokken 11:31 UTC
Varsel gyldig fra 24. klokken 12 UTC til 25. klokken 12 UTC
Vind 14 kt fra Vest-nordvest
Sikt 10 km eller mer
ingen skyer under 1500 m og ingen bygeskyer
Midlertidig
fra 24. klokken 12 UTC til 24. klokken 14 UTC
Vind 15 kt fra Nordvest med vindkast opp mot 30 kt
Blir
fra 24. klokken 21 UTC til 24. klokken 23 UTC
Vind 4 kt fra Vest-nordvest

TAF: EFVA 241131Z 2412/2512 30014KT CAVOK TEMPO 2412/2414 31015G30KT BECMG 2421/2423 29004KT

Værobservasjoner og værvarsel for over 4000 flyplasser (METAR- og TAF-rapporter).

Tilgjengelige stasjoner er representert av de røde og gule prikkene på kartet.

Hold musepekeren over prikken for å se navnet på stasjonen.

Klikk så for å se værobservasjoner og -varsler.

For å forandre kartet kan du klikke på den grønne knappen med svart kryss for å zoome inn, på den grønne knappen med strek for å zoome ut, eller på de grønne pilene for å se tilstøtende kart.


METAR-TAF: